createdAt,value
2023-07-18T00:01:59.962Z,12.32
2023-07-18T00:04:31.183Z,12.15
2023-07-18T00:06:57.777Z,12.12
2023-07-18T00:09:25.744Z,12.15
2023-07-18T00:11:53.544Z,12.16
2023-07-18T00:14:20.194Z,12.19
2023-07-18T00:16:46.922Z,12.03
2023-07-18T00:19:13.643Z,11.89
2023-07-18T00:21:42.042Z,11.79
2023-07-18T00:24:08.804Z,11.83
2023-07-18T00:26:35.753Z,11.88
2023-07-18T00:29:02.548Z,11.63
2023-07-18T00:31:29.249Z,11.80
2023-07-18T00:33:56.054Z,11.93
2023-07-18T00:36:23.022Z,11.82
2023-07-18T00:38:50.360Z,11.76
2023-07-18T00:41:17.354Z,11.89
2023-07-18T00:43:44.178Z,11.89
2023-07-18T00:46:11.454Z,11.86
2023-07-18T00:48:38.226Z,11.81
2023-07-18T00:51:05.716Z,11.90
2023-07-18T00:53:33.426Z,11.91
2023-07-18T00:56:01.655Z,11.95
2023-07-18T00:58:30.009Z,11.92
2023-07-18T01:00:56.646Z,11.87
2023-07-18T01:03:23.609Z,11.94
2023-07-18T01:05:50.328Z,11.96
2023-07-18T01:08:16.931Z,11.92
2023-07-18T01:10:43.728Z,11.93
2023-07-18T01:13:10.939Z,11.90
2023-07-18T01:15:38.678Z,11.85
2023-07-18T01:18:09.319Z,11.86
2023-07-18T01:20:37.578Z,11.69
2023-07-18T01:23:05.455Z,11.77
2023-07-18T01:25:34.758Z,11.75
2023-07-18T01:28:01.597Z,11.74
2023-07-18T01:30:29.173Z,11.82
2023-07-18T01:32:56.241Z,11.79
2023-07-18T01:35:26.998Z,11.86
2023-07-18T01:37:55.338Z,11.76
2023-07-18T01:40:22.855Z,11.72
2023-07-18T01:42:54.029Z,11.66
2023-07-18T01:45:23.273Z,11.56
2023-07-18T01:47:51.040Z,11.48
2023-07-18T01:50:19.197Z,11.55
2023-07-18T01:52:47.575Z,11.58
2023-07-18T01:55:14.786Z,11.49
2023-07-18T01:57:41.665Z,11.60
2023-07-18T02:00:13.669Z,11.55
2023-07-18T02:02:41.653Z,11.46
2023-07-18T02:05:09.454Z,11.38
2023-07-18T02:07:36.612Z,11.50
2023-07-18T02:10:04.617Z,11.43
2023-07-18T02:12:31.350Z,11.17
2023-07-18T02:14:58.051Z,11.17
2023-07-18T02:17:25.813Z,11.04
2023-07-18T02:19:52.455Z,10.84
2023-07-18T02:22:20.570Z,10.82
2023-07-18T02:24:49.280Z,10.81
2023-07-18T02:27:16.113Z,10.72
2023-07-18T02:29:42.790Z,10.85
2023-07-18T02:32:09.701Z,10.83
2023-07-18T02:34:36.379Z,10.97
2023-07-18T02:37:02.989Z,11.19
2023-07-18T02:39:34.099Z,11.28
2023-07-18T02:42:01.091Z,11.34
2023-07-18T02:44:27.944Z,11.39
2023-07-18T02:46:55.705Z,11.49
2023-07-18T02:49:22.397Z,11.43
2023-07-18T02:51:49.145Z,11.33
2023-07-18T02:54:15.929Z,11.19
2023-07-18T02:56:43.634Z,11.16
2023-07-18T02:59:10.351Z,11.05
2023-07-18T03:01:41.191Z,10.91
2023-07-18T03:04:08.018Z,10.98
2023-07-18T03:06:34.656Z,10.91
2023-07-18T03:09:02.842Z,10.90
2023-07-18T03:11:29.507Z,10.60
2023-07-18T03:13:56.919Z,10.73
2023-07-18T03:16:24.176Z,10.82
2023-07-18T03:18:51.024Z,10.73
2023-07-18T03:21:18.972Z,10.82
2023-07-18T03:23:45.973Z,10.83
2023-07-18T03:26:12.971Z,10.69
2023-07-18T03:28:39.611Z,10.56
2023-07-18T03:31:06.736Z,10.87
2023-07-18T03:33:33.540Z,10.70
2023-07-18T03:36:00.187Z,10.76
2023-07-18T03:38:27.233Z,10.80
2023-07-18T03:40:54.290Z,10.88
2023-07-18T03:43:21.016Z,10.99
2023-07-18T03:45:47.731Z,10.98
2023-07-18T03:48:14.524Z,10.89
2023-07-18T03:50:43.674Z,10.90
2023-07-18T03:53:10.713Z,11.06
2023-07-18T03:55:40.619Z,11.10
2023-07-18T03:58:07.300Z,11.13
2023-07-18T04:00:34.072Z,11.13
2023-07-18T04:03:00.977Z,11.12
2023-07-18T04:05:27.965Z,11.16
2023-07-18T04:07:54.746Z,11.27
2023-07-18T04:10:21.527Z,11.38
2023-07-18T04:12:48.733Z,11.40
2023-07-18T04:15:16.260Z,11.40
2023-07-18T04:17:43.439Z,11.37
2023-07-18T04:20:10.483Z,11.46
2023-07-18T04:22:37.187Z,11.53
2023-07-18T04:25:04.135Z,11.64
2023-07-18T04:27:31.007Z,11.69
2023-07-18T04:29:57.865Z,11.81
2023-07-18T04:32:25.765Z,11.63
2023-07-18T04:34:52.628Z,12.04
2023-07-18T04:37:20.027Z,12.05
2023-07-18T04:39:46.838Z,12.16
2023-07-18T04:42:13.556Z,12.26
2023-07-18T04:44:40.349Z,12.33
2023-07-18T04:47:09.803Z,12.27
2023-07-18T04:49:36.937Z,12.43
2023-07-18T04:52:04.363Z,12.60
2023-07-18T04:54:31.276Z,12.69
2023-07-18T04:56:57.978Z,12.80
2023-07-18T04:59:24.702Z,12.89
2023-07-18T05:01:57.738Z,12.99
2023-07-18T05:04:27.068Z,13.09
2023-07-18T05:06:53.865Z,13.15
2023-07-18T05:09:20.613Z,13.25
2023-07-18T05:11:47.821Z,13.30
2023-07-18T05:14:15.567Z,13.37
2023-07-18T05:16:43.316Z,13.56
2023-07-18T05:19:10.027Z,13.82
2023-07-18T05:21:37.008Z,14.22
2023-07-18T05:24:03.807Z,14.50
2023-07-18T05:26:30.515Z,14.78
2023-07-18T05:28:57.264Z,14.68
2023-07-18T05:31:24.481Z,14.73
2023-07-18T05:33:51.605Z,14.76
2023-07-18T05:36:18.291Z,14.77
2023-07-18T05:38:46.520Z,14.60
2023-07-18T05:41:13.459Z,14.55
2023-07-18T05:43:40.456Z,14.39
2023-07-18T05:46:07.192Z,14.28
2023-07-18T05:48:34.085Z,14.22
2023-07-18T05:51:01.823Z,14.26
2023-07-18T05:53:28.544Z,14.39
2023-07-18T05:55:56.208Z,14.83
2023-07-18T05:58:22.879Z,15.05
2023-07-18T06:00:49.749Z,15.25
2023-07-18T06:03:16.652Z,15.47
2023-07-18T06:05:43.518Z,15.62
2023-07-18T06:08:13.026Z,15.43
2023-07-18T06:10:39.765Z,15.32
2023-07-18T06:13:06.491Z,15.40
2023-07-18T06:15:33.218Z,15.26
2023-07-18T06:18:00.820Z,15.44
2023-07-18T06:20:27.677Z,15.63
2023-07-18T06:22:54.539Z,15.68
2023-07-18T06:25:21.433Z,15.82
2023-07-18T06:27:50.652Z,15.68
2023-07-18T06:30:18.336Z,15.73
2023-07-18T06:32:46.062Z,15.94
2023-07-18T06:37:44.242Z,16.33
2023-07-18T06:40:12.862Z,16.64
2023-07-18T06:42:40.394Z,16.34
2023-07-18T06:45:10.144Z,16.27
2023-07-18T06:47:37.199Z,16.09
2023-07-18T06:50:04.069Z,16.16
2023-07-18T06:52:32.588Z,16.07
2023-07-18T06:55:01.540Z,15.95
2023-07-18T06:57:28.383Z,16.22
2023-07-18T06:59:56.053Z,16.29
2023-07-18T07:02:23.319Z,16.42
2023-07-18T07:04:50.540Z,16.30
2023-07-18T07:07:17.778Z,16.29
2023-07-18T07:09:44.714Z,16.64
2023-07-18T07:12:18.912Z,17.06
2023-07-18T07:14:53.541Z,17.17
2023-07-18T07:17:20.858Z,17.39
2023-07-18T07:19:47.858Z,17.20
2023-07-18T07:22:15.821Z,17.34
2023-07-18T07:24:42.877Z,17.19
2023-07-18T07:27:10.549Z,17.03
2023-07-18T07:29:41.281Z,16.77
2023-07-18T07:32:08.616Z,16.60
2023-07-18T07:34:37.234Z,16.65
2023-07-18T07:37:05.231Z,16.51
2023-07-18T07:39:31.949Z,16.61
2023-07-18T07:41:58.881Z,16.64
2023-07-18T07:44:25.683Z,16.59
2023-07-18T07:46:52.554Z,16.64
2023-07-18T07:49:19.481Z,16.94
2023-07-18T07:51:50.400Z,17.21
2023-07-18T07:54:17.146Z,17.65
2023-07-18T07:56:43.989Z,18.45
2023-07-18T07:59:12.222Z,18.78
2023-07-18T08:01:39.567Z,18.85
2023-07-18T08:04:06.626Z,18.92
2023-07-18T08:06:33.345Z,18.82
2023-07-18T08:09:00.641Z,19.17
2023-07-18T08:11:27.326Z,18.80
2023-07-18T08:13:54.683Z,18.46
2023-07-18T08:16:22.288Z,18.23
2023-07-18T08:18:49.127Z,18.61
2023-07-18T08:21:15.870Z,19.17
2023-07-18T08:23:42.622Z,18.85
2023-07-18T08:26:09.307Z,18.64
2023-07-18T08:28:35.940Z,18.86
2023-07-18T08:31:05.834Z,19.52
2023-07-18T08:33:32.835Z,19.29
2023-07-18T08:36:00.946Z,19.00
2023-07-18T08:38:27.723Z,19.51
2023-07-18T08:40:54.368Z,19.26
2023-07-18T08:43:21.660Z,18.83
2023-07-18T08:45:48.807Z,18.49
2023-07-18T08:48:16.224Z,18.47
2023-07-18T08:50:43.231Z,18.22
2023-07-18T08:53:12.461Z,18.08
2023-07-18T08:55:39.364Z,17.83
2023-07-18T08:58:06.599Z,17.88
2023-07-18T09:00:33.329Z,17.98
2023-07-18T09:03:00.032Z,18.07
2023-07-18T09:05:36.967Z,18.10
2023-07-18T09:08:06.026Z,17.92
2023-07-18T09:10:35.072Z,17.71
2023-07-18T09:13:03.467Z,17.80
2023-07-18T09:15:34.026Z,18.34
2023-07-18T09:18:04.086Z,19.46
2023-07-18T09:20:32.184Z,20.55
2023-07-18T09:22:59.779Z,20.07
2023-07-18T09:25:27.879Z,19.70
2023-07-18T09:27:55.811Z,20.64
2023-07-18T09:30:24.436Z,19.72
2023-07-18T09:32:52.592Z,20.24
2023-07-18T09:35:19.436Z,19.53
2023-07-18T09:37:48.609Z,20.27
2023-07-18T09:40:17.194Z,20.11
2023-07-18T09:42:48.129Z,19.82
2023-07-18T09:45:16.565Z,19.47
2023-07-18T09:47:44.956Z,20.10
2023-07-18T09:50:16.117Z,20.75
2023-07-18T09:52:52.550Z,20.23
2023-07-18T09:55:28.345Z,19.81
2023-07-18T09:58:00.599Z,20.67
2023-07-18T10:00:28.085Z,20.90
2023-07-18T10:02:57.736Z,20.82
2023-07-18T10:05:27.899Z,20.25
2023-07-18T10:07:55.399Z,19.86
2023-07-18T10:10:22.263Z,19.76
2023-07-18T10:13:09.266Z,19.72
2023-07-18T10:16:16.364Z,19.67
2023-07-18T10:18:52.880Z,19.19
2023-07-18T10:21:34.124Z,19.00
2023-07-18T10:24:23.086Z,19.27
2023-07-18T10:26:53.067Z,20.58
2023-07-18T10:29:20.192Z,21.02
2023-07-18T10:31:47.300Z,20.49
2023-07-18T10:34:16.455Z,19.99
2023-07-18T10:37:00.854Z,20.38
2023-07-18T10:39:55.709Z,19.86
2023-07-18T10:42:29.894Z,19.97
2023-07-18T10:44:58.888Z,19.79
2023-07-18T10:47:27.574Z,19.64
2023-07-18T10:49:56.722Z,19.18
2023-07-18T10:52:23.833Z,18.92
2023-07-18T10:54:50.537Z,18.97
2023-07-18T10:57:17.783Z,19.07
2023-07-18T10:59:45.830Z,19.23
2023-07-18T11:02:13.491Z,19.53
2023-07-18T11:04:40.266Z,20.24
2023-07-18T11:07:06.997Z,22.12
2023-07-18T11:09:36.226Z,22.87
2023-07-18T11:12:04.412Z,21.49
2023-07-18T11:14:41.273Z,22.16
2023-07-18T11:17:15.276Z,21.79
2023-07-18T11:19:42.044Z,21.72
2023-07-18T11:22:11.555Z,21.82
2023-07-18T11:24:38.445Z,21.59
2023-07-18T11:27:15.940Z,21.28
2023-07-18T11:29:56.451Z,20.90
2023-07-18T11:32:41.483Z,20.76
2023-07-18T11:35:22.412Z,20.63
2023-07-18T11:37:53.757Z,20.40
2023-07-18T11:40:27.210Z,20.04
2023-07-18T11:42:59.254Z,19.74
2023-07-18T11:45:28.494Z,19.37
2023-07-18T11:47:57.991Z,19.02
2023-07-18T11:50:30.462Z,18.91
2023-07-18T11:52:59.698Z,18.79
2023-07-18T11:55:28.483Z,18.49
2023-07-18T11:57:55.479Z,18.45
2023-07-18T12:00:22.463Z,18.52
2023-07-18T12:02:50.013Z,18.54
2023-07-18T12:05:24.944Z,18.65
2023-07-18T12:07:53.127Z,19.04
2023-07-18T12:10:24.091Z,19.41
2023-07-18T12:12:53.021Z,19.66
2023-07-18T12:15:19.716Z,19.86
2023-07-18T12:17:47.616Z,19.97
2023-07-18T12:20:14.936Z,19.90
2023-07-18T12:22:41.689Z,19.74
2023-07-18T12:25:09.274Z,19.58
2023-07-18T12:27:36.076Z,19.59
2023-07-18T12:30:03.248Z,19.89
2023-07-18T12:32:32.109Z,19.86
2023-07-18T12:34:59.254Z,20.11
2023-07-18T12:37:26.103Z,20.06
2023-07-18T12:39:52.933Z,20.05
2023-07-18T12:42:19.750Z,19.96
2023-07-18T12:44:47.450Z,19.81
2023-07-18T12:47:14.712Z,20.06
2023-07-18T12:52:14.023Z,24.01
2023-07-18T12:54:41.744Z,24.50
2023-07-18T12:57:08.728Z,23.57
2023-07-18T12:59:35.481Z,22.84
2023-07-18T13:02:02.614Z,24.13
2023-07-18T13:04:30.129Z,23.00
2023-07-18T13:06:57.116Z,21.61
2023-07-18T13:09:23.831Z,21.48
2023-07-18T13:11:50.908Z,22.08
2023-07-18T13:14:21.443Z,23.54
2023-07-18T13:16:48.714Z,25.17
2023-07-18T13:19:15.710Z,24.31
2023-07-18T13:21:42.578Z,25.17
2023-07-18T13:24:09.707Z,25.62
2023-07-18T13:26:37.303Z,25.39
2023-07-18T13:29:04.914Z,25.33
2023-07-18T13:31:31.619Z,25.77
2023-07-18T13:33:59.291Z,25.85
2023-07-18T13:36:25.863Z,26.13
2023-07-18T13:38:52.630Z,25.96
2023-07-18T13:41:19.255Z,25.03
2023-07-18T13:43:45.906Z,23.48
2023-07-18T13:46:13.646Z,22.10
2023-07-18T13:48:40.652Z,21.73
2023-07-18T13:51:07.604Z,21.15
2023-07-18T13:53:35.378Z,22.10
2023-07-18T13:56:02.795Z,23.96
2023-07-18T13:58:29.526Z,23.16
2023-07-18T14:00:56.653Z,22.64
2023-07-18T14:03:34.456Z,22.94
2023-07-18T14:06:02.583Z,23.64
2023-07-18T14:08:30.855Z,22.63
2023-07-18T14:10:58.091Z,22.54
2023-07-18T14:13:25.077Z,22.57
2023-07-18T14:15:51.999Z,24.04
2023-07-18T14:18:18.884Z,25.14
2023-07-18T14:20:46.215Z,25.56
2023-07-18T14:23:13.136Z,25.14
2023-07-18T14:25:39.919Z,25.34
2023-07-18T14:28:06.627Z,24.92
2023-07-18T14:30:33.606Z,25.10
2023-07-18T14:33:02.296Z,25.11
2023-07-18T14:35:30.610Z,25.66
2023-07-18T14:37:57.452Z,25.31
2023-07-18T14:40:24.296Z,25.09
2023-07-18T14:42:50.979Z,25.12
2023-07-18T14:45:17.712Z,24.84
2023-07-18T14:47:44.544Z,24.65
2023-07-18T14:50:12.368Z,25.05
2023-07-18T14:52:39.054Z,24.84
2023-07-18T14:55:06.086Z,25.62
2023-07-18T14:57:32.854Z,25.11
2023-07-18T15:00:01.494Z,24.32
2023-07-18T15:02:28.251Z,24.21
2023-07-18T15:04:55.016Z,23.46
2023-07-18T15:07:21.887Z,23.44
2023-07-18T15:09:50.074Z,24.41
2023-07-18T15:12:18.700Z,24.60
2023-07-18T15:14:45.526Z,24.91
2023-07-18T15:17:12.403Z,23.33
2023-07-18T15:19:39.498Z,21.89
2023-07-18T15:22:06.281Z,21.47
2023-07-18T15:24:33.010Z,21.45
2023-07-18T15:26:59.921Z,23.57
2023-07-18T15:29:26.687Z,25.14
2023-07-18T15:31:53.369Z,25.84
2023-07-18T15:34:20.134Z,26.03
2023-07-18T15:36:47.376Z,25.21
2023-07-18T15:39:14.299Z,24.50
2023-07-18T15:41:41.216Z,25.15
2023-07-18T15:44:18.486Z,26.18
2023-07-18T15:46:55.242Z,25.37
2023-07-18T15:49:29.287Z,24.61
2023-07-18T15:52:03.385Z,25.64
2023-07-18T15:54:30.697Z,25.41
2023-07-18T15:57:05.256Z,25.68
2023-07-18T15:59:33.328Z,26.30
2023-07-18T16:02:00.899Z,25.35
2023-07-18T16:04:30.151Z,24.60
2023-07-18T16:07:00.491Z,25.19
2023-07-18T16:09:30.878Z,25.87
2023-07-18T16:12:01.170Z,26.62
2023-07-18T16:14:29.416Z,26.43
2023-07-18T16:17:11.188Z,25.88
2023-07-18T16:19:39.991Z,24.60
2023-07-18T16:22:13.248Z,24.76
2023-07-18T16:24:43.761Z,24.76
2023-07-18T16:27:10.580Z,23.06
2023-07-18T16:29:40.985Z,22.14
2023-07-18T16:32:09.245Z,21.61
2023-07-18T16:34:38.310Z,22.12
2023-07-18T16:37:05.798Z,23.61
2023-07-18T16:39:36.605Z,24.40
2023-07-18T16:42:21.992Z,24.60
2023-07-18T16:45:02.390Z,24.07
2023-07-18T16:47:32.318Z,23.50
2023-07-18T16:49:59.939Z,22.20
2023-07-18T16:52:30.654Z,21.23
2023-07-18T16:54:58.129Z,21.41
2023-07-18T16:57:25.775Z,21.04
2023-07-18T17:00:01.386Z,20.73
2023-07-18T17:02:28.512Z,20.52
2023-07-18T17:04:58.665Z,20.36
2023-07-18T17:07:25.771Z,20.30
2023-07-18T17:09:55.693Z,20.21
2023-07-18T17:12:23.433Z,20.00
2023-07-18T17:14:52.902Z,20.01
2023-07-18T17:17:19.754Z,19.88
2023-07-18T17:20:03.188Z,19.85
2023-07-18T17:22:34.193Z,19.72
2023-07-18T17:25:00.931Z,19.67
2023-07-18T17:27:28.951Z,19.48
2023-07-18T17:29:55.845Z,19.47
2023-07-18T17:34:49.422Z,19.33
2023-07-18T17:37:16.943Z,19.27
2023-07-18T17:39:45.518Z,19.27
2023-07-18T17:42:12.540Z,19.16
2023-07-18T17:44:41.675Z,19.25
2023-07-18T17:47:08.420Z,19.18
2023-07-18T17:49:35.534Z,19.19
2023-07-18T17:52:02.328Z,19.13
2023-07-18T17:54:29.848Z,19.02
2023-07-18T17:56:56.669Z,19.05
2023-07-18T17:59:23.570Z,18.97
2023-07-18T18:01:51.382Z,18.97
2023-07-18T18:04:18.486Z,18.93
2023-07-18T18:06:45.598Z,18.28
2023-07-18T18:09:12.438Z,18.81
2023-07-18T18:11:39.253Z,18.74
2023-07-18T18:14:06.331Z,18.53
2023-07-18T18:16:34.967Z,18.57
2023-07-18T18:19:01.649Z,18.48
2023-07-18T18:21:28.492Z,18.52
2023-07-18T18:23:55.169Z,18.52
2023-07-18T18:26:22.313Z,18.54
2023-07-18T18:28:49.036Z,18.55
2023-07-18T18:31:16.343Z,18.50
2023-07-18T18:33:44.271Z,18.49
2023-07-18T18:36:11.316Z,18.50
2023-07-18T18:38:38.164Z,18.52
2023-07-18T18:41:06.156Z,18.50
2023-07-18T18:43:34.492Z,18.47
2023-07-18T18:46:01.494Z,18.48
2023-07-18T18:48:28.407Z,18.52
2023-07-18T18:50:55.244Z,18.44
2023-07-18T18:53:22.491Z,18.31
2023-07-18T18:55:49.356Z,18.27
2023-07-18T18:58:16.178Z,18.22
2023-07-18T19:00:43.003Z,18.20
2023-07-18T19:03:09.845Z,18.16
2023-07-18T19:05:37.987Z,18.13
2023-07-18T19:08:04.780Z,18.12
2023-07-18T19:10:31.628Z,18.10
2023-07-18T19:13:00.647Z,18.06
2023-07-18T19:15:28.297Z,17.95
2023-07-18T19:17:55.119Z,17.92
2023-07-18T19:20:22.486Z,17.80
2023-07-18T19:22:49.271Z,17.70
2023-07-18T19:25:18.739Z,17.69
2023-07-18T19:27:47.627Z,17.62
2023-07-18T19:30:14.848Z,17.71
2023-07-18T19:32:41.793Z,17.61
2023-07-18T19:35:09.753Z,17.62
2023-07-18T19:37:36.456Z,17.55
2023-07-18T19:40:03.723Z,17.39
2023-07-18T19:42:32.580Z,17.54
2023-07-18T19:45:00.306Z,17.50
2023-07-18T19:47:28.086Z,17.52
2023-07-18T19:49:56.448Z,17.49
2023-07-18T19:52:24.672Z,17.44
2023-07-18T19:54:52.435Z,17.43
2023-07-18T19:57:19.098Z,17.38
2023-07-18T19:59:45.878Z,17.43
2023-07-18T20:02:12.656Z,17.38
2023-07-18T20:04:39.510Z,17.44
2023-07-18T20:07:06.392Z,17.46
2023-07-18T20:09:34.438Z,17.30
2023-07-18T20:12:01.145Z,17.42
2023-07-18T20:14:27.845Z,17.40
2023-07-18T20:16:54.533Z,17.32
2023-07-18T20:19:21.579Z,17.33
2023-07-18T20:21:48.259Z,17.35
2023-07-18T20:24:15.044Z,17.29
2023-07-18T20:26:43.540Z,17.26
2023-07-18T20:29:10.455Z,17.19
2023-07-18T20:31:37.340Z,17.15
2023-07-18T20:34:04.049Z,17.19
2023-07-18T20:36:30.655Z,17.14
2023-07-18T20:38:57.296Z,17.07
2023-07-18T20:41:24.131Z,17.05
2023-07-18T20:43:52.061Z,17.06
2023-07-18T20:46:18.969Z,17.13
2023-07-18T20:48:46.944Z,17.17
2023-07-18T20:51:13.665Z,17.14
2023-07-18T20:53:40.469Z,17.13
2023-07-18T20:56:07.282Z,17.05
2023-07-18T20:58:34.343Z,16.90
2023-07-18T21:01:01.752Z,16.94
2023-07-18T21:03:29.078Z,16.90
2023-07-18T21:05:59.139Z,16.85
2023-07-18T21:08:25.884Z,16.75
2023-07-18T21:10:52.605Z,16.69
2023-07-18T21:13:19.240Z,16.58
2023-07-18T21:15:45.910Z,16.53
2023-07-18T21:18:12.760Z,16.42
2023-07-18T21:20:39.462Z,16.37
2023-07-18T21:23:06.526Z,16.37
2023-07-18T21:25:33.379Z,16.34
2023-07-18T21:28:00.213Z,16.36
2023-07-18T21:30:26.940Z,16.37
2023-07-18T21:32:53.789Z,16.41
2023-07-18T21:35:23.665Z,16.41
2023-07-18T21:37:51.257Z,16.37
2023-07-18T21:40:19.404Z,16.36
2023-07-18T21:42:48.300Z,16.26
2023-07-18T21:45:15.980Z,16.15
2023-07-18T21:47:43.302Z,16.07
2023-07-18T21:50:10.160Z,15.88
2023-07-18T21:52:36.900Z,15.96
2023-07-18T21:55:03.987Z,15.86
2023-07-18T21:57:30.797Z,15.83
2023-07-18T21:59:58.099Z,15.77
2023-07-18T22:02:37.723Z,15.67
2023-07-18T22:05:05.029Z,15.69
2023-07-18T22:07:32.005Z,15.60
2023-07-18T22:10:00.540Z,15.57
2023-07-18T22:12:27.331Z,15.60
2023-07-18T22:14:54.099Z,15.58
2023-07-18T22:17:21.271Z,15.56
2023-07-18T22:19:48.297Z,15.43
2023-07-18T22:22:15.934Z,15.47
2023-07-18T22:24:42.676Z,15.44
2023-07-18T22:27:10.592Z,15.44
2023-07-18T22:29:37.336Z,15.40
2023-07-18T22:32:04.550Z,15.30
2023-07-18T22:34:32.467Z,15.36
2023-07-18T22:36:59.130Z,15.33
2023-07-18T22:39:35.698Z,15.24
2023-07-18T22:42:23.828Z,15.26
2023-07-18T22:44:51.372Z,15.26
2023-07-18T22:47:18.923Z,15.21
2023-07-18T22:49:46.551Z,15.18
2023-07-18T22:52:19.394Z,15.07
2023-07-18T22:54:47.805Z,15.15
2023-07-18T22:57:15.291Z,15.04
2023-07-18T22:59:42.096Z,15.12
2023-07-18T23:02:08.956Z,15.09
2023-07-18T23:04:36.387Z,15.07
2023-07-18T23:07:04.018Z,15.05
2023-07-18T23:09:31.932Z,15.02
2023-07-18T23:11:58.816Z,14.98
2023-07-18T23:14:25.786Z,14.94
2023-07-18T23:16:52.473Z,14.88
2023-07-18T23:19:19.180Z,14.93
2023-07-18T23:21:46.880Z,14.93
2023-07-18T23:24:13.952Z,14.91
2023-07-18T23:26:40.765Z,14.92
2023-07-18T23:29:07.641Z,14.91
2023-07-18T23:31:34.320Z,14.93
2023-07-18T23:34:00.966Z,14.95
2023-07-18T23:36:27.626Z,14.95
2023-07-18T23:38:54.397Z,14.94
2023-07-18T23:41:21.228Z,14.96
2023-07-18T23:43:48.182Z,14.95
2023-07-18T23:46:14.970Z,14.96
2023-07-18T23:48:41.880Z,14.88
2023-07-18T23:51:08.875Z,14.87
2023-07-18T23:53:35.631Z,14.82
2023-07-18T23:56:02.624Z,14.72
2023-07-18T23:58:29.679Z,14.64
